Time;durP1;ratioP1;P1;durP2;ratioP2;P2;SDS_P1;SDS_P2;PMS_P1;PMS_P2;Temp;Humidity;BMP_temperature;BMP_pressure;BME280_temperature;BME280_humidity;BME280_pressure;Samples;Min_cycle;Max_cycle;Signal;HPM_P1;HPM_P2
2022/05/28 00:01:33;;;;;;;9.05;2.88;;;14.20;98.60;;;;;;5071733;28;20027;-69
2022/05/28 00:04:04;;;;;;;7.00;2.67;;;14.20;98.70;;;;;;5077822;28;20113;-69
2022/05/28 00:06:30;;;;;;;6.68;2.10;;;14.10;99.20;;;;;;5071820;28;20033;-71
2022/05/28 00:08:59;;;;;;;7.07;2.80;;;14.10;98.90;;;;;;5076739;28;20043;-71
2022/05/28 00:11:31;;;;;;;6.30;2.60;;;14.10;99.70;;;;;;5066726;28;20041;-70
2022/05/28 00:13:57;;;;;;;10.85;2.72;;;14.10;98.70;;;;;;5069441;28;20048;-70
2022/05/28 00:16:23;;;;;;;11.43;3.17;;;14.10;99.80;;;;;;5071296;28;20021;-70
2022/05/28 00:18:52;;;;;;;7.53;2.50;;;14.00;99.50;;;;;;5076834;28;20082;-70
2022/05/28 00:21:18;;;;;;;8.63;2.75;;;13.90;99.40;;;;;;5071646;28;20140;-70
2022/05/28 00:23:44;;;;;;;8.27;3.00;;;13.90;98.90;;;;;;5075062;28;20031;-70
2022/05/28 00:26:11;;;;;;;10.73;3.50;;;13.90;99.50;;;;;;5071405;28;20485;-69
2022/05/28 00:28:37;;;;;;;8.10;2.78;;;13.90;98.70;;;;;;5072062;28;20033;-70
2022/05/28 00:31:02;;;;;;;11.10;2.67;;;13.90;99.30;;;;;;5069010;28;20088;-70
2022/05/28 00:33:30;;;;;;;9.57;3.20;;;13.90;99.70;;;;;;5077001;28;20055;-70
2022/05/28 00:35:57;;;;;;;7.20;2.53;;;13.90;99.90;;;;;;5076322;28;20032;-70
2022/05/28 00:38:24;;;;;;;8.40;3.22;;;13.80;98.90;;;;;;5077497;28;20384;-70
2022/05/28 00:40:52;;;;;;;9.40;2.50;;;13.80;99.00;;;;;;5076683;28;20477;-70
2022/05/28 00:43:18;;;;;;;7.88;2.97;;;13.70;98.90;;;;;;5074872;28;20056;-70
2022/05/28 00:45:46;;;;;;;12.00;3.28;;;13.80;99.90;;;;;;5068993;28;20059;-70
2022/05/28 00:48:14;;;;;;;10.02;3.40;;;13.80;99.50;;;;;;5077153;28;20036;-70
2022/05/28 00:50:39;;;;;;;12.38;3.65;;;13.70;99.90;;;;;;5070909;28;20028;-71
2022/05/28 00:53:06;;;;;;;8.88;3.40;;;13.80;99.90;;;;;;5076820;28;20388;-70
2022/05/28 00:55:34;;;;;;;11.80;3.10;;;13.70;99.90;;;;;;5073242;28;20089;-70
2022/05/28 00:58:03;;;;;;;10.48;3.40;;;13.70;99.20;;;;;;5073119;28;20055;-70
2022/05/28 01:00:29;;;;;;;14.77;3.70;;;13.70;99.60;;;;;;5075334;28;20067;-70
2022/05/28 01:03:17;;;;;;;10.50;3.38;;;13.60;99.80;;;;;;5070264;28;20064;-70
2022/05/28 01:06:01;;;;;;;13.07;3.35;;;13.60;99.90;;;;;;5074988;28;20028;-70
2022/05/28 01:08:41;;;;;;;10.88;3.00;;;13.60;99.90;;;;;;5074072;28;20066;-70
2022/05/28 01:11:13;;;;;;;17.77;3.70;;;13.70;99.90;;;;;;5074253;28;20116;-70
2022/05/28 01:13:51;;;;;;;;;;;13.70;99.90;;;;;;5076297;28;20033;-68
2022/05/28 01:16:43;;;;;;;11.05;3.58;;;13.60;99.70;;;;;;5075871;28;20424;-70
2022/05/28 01:19:27;;;;;;;15.02;3.58;;;13.70;99.60;;;;;;5072735;28;20401;-70
2022/05/28 01:21:59;;;;;;;10.73;3.30;;;13.60;99.90;;;;;;5071013;28;20396;-70
2022/05/28 01:25:12;;;;;;;10.55;3.28;;;13.60;99.90;;;;;;5072206;28;20028;-70
2022/05/28 01:27:44;;;;;;;12.98;3.65;;;13.60;99.90;;;;;;5064635;28;20051;-70
2022/05/28 01:30:14;;;;;;;14.98;3.75;;;13.60;99.90;;;;;;5074200;28;20039;-70
2022/05/28 01:32:42;;;;;;;11.13;4.22;;;13.60;99.90;;;;;;5070041;28;20028;-70
2022/05/28 01:35:11;;;;;;;10.48;3.97;;;13.50;99.90;;;;;;5072051;28;20035;-70
2022/05/28 01:37:38;;;;;;;11.27;3.72;;;13.50;99.90;;;;;;5070019;28;20024;-70
2022/05/28 01:40:07;;;;;;;16.00;3.63;;;13.50;99.90;;;;;;5075151;28;20040;-70
2022/05/28 01:42:37;;;;;;;13.38;4.15;;;13.50;99.90;;;;;;5075380;28;20488;-70
2022/05/28 01:45:04;;;;;;;14.98;3.88;;;13.50;99.90;;;;;;5075396;28;20093;-70
2022/05/28 01:47:32;;;;;;;16.83;3.90;;;13.50;99.90;;;;;;5073560;28;20042;-70
2022/05/28 01:50:00;;;;;;;14.05;3.80;;;13.50;99.90;;;;;;5073346;28;20107;-70
2022/05/28 01:52:28;;;;;;;18.83;5.05;;;13.50;99.90;;;;;;5071611;28;20078;-70
2022/05/28 01:54:56;;;;;;;13.13;4.00;;;13.50;99.90;;;;;;5067305;28;20029;-70
2022/05/28 01:57:21;;;;;;;12.60;4.03;;;13.50;99.90;;;;;;5070690;28;20486;-70
2022/05/28 01:59:48;;;;;;;10.38;3.97;;;13.50;99.90;;;;;;5074167;28;20098;-69
2022/05/28 02:02:15;;;;;;;11.68;4.82;;;13.50;99.90;;;;;;5068948;28;20024;-69
2022/05/28 02:04:43;;;;;;;12.40;4.47;;;13.50;99.90;;;;;;5073280;28;20028;-70
2022/05/28 02:07:10;;;;;;;22.35;4.75;;;13.50;99.90;;;;;;5073158;28;20055;-69
2022/05/28 02:09:44;;;;;;;13.48;3.83;;;13.50;99.90;;;;;;5069765;28;20040;-70
2022/05/28 02:12:10;;;;;;;11.45;4.10;;;13.50;99.90;;;;;;5072601;28;20484;-70
2022/05/28 02:14:53;;;;;;;16.58;4.72;;;13.60;99.90;;;;;;5074036;28;20029;-69
2022/05/28 02:17:36;;;;;;;13.35;3.90;;;13.60;99.90;;;;;;5074520;28;20032;-70
2022/05/28 02:20:15;;;;;;;13.23;4.40;;;13.70;99.90;;;;;;5074301;28;20496;-70
2022/05/28 02:22:43;;;;;;;12.25;4.03;;;13.70;99.90;;;;;;5073978;28;20044;-70
2022/05/28 02:25:18;;;;;;;11.60;4.22;;;13.70;99.90;;;;;;5071305;28;20082;-70
2022/05/28 02:27:45;;;;;;;15.77;4.65;;;13.70;99.90;;;;;;5063075;28;20032;-70
2022/05/28 02:30:11;;;;;;;17.52;4.70;;;13.70;99.90;;;;;;5072591;28;20028;-70
2022/05/28 02:32:37;;;;;;;11.70;3.92;;;13.80;99.90;;;;;;5060506;28;20029;-70
2022/05/28 02:35:03;;;;;;;14.82;4.30;;;13.70;99.90;;;;;;5067868;28;20028;-70
2022/05/28 02:37:29;;;;;;;20.88;4.35;;;13.60;99.90;;;;;;5075622;28;20040;-69
2022/05/28 02:39:57;;;;;;;14.13;4.25;;;13.60;99.90;;;;;;5068081;28;20036;-69
2022/05/28 02:42:23;;;;;;;14.60;4.38;;;13.50;99.90;;;;;;5068707;28;20462;-70
2022/05/28 02:44:49;;;;;;;13.73;3.95;;;13.50;99.90;;;;;;5072975;28;20028;-70
2022/05/28 02:47:15;;;;;;;15.02;3.38;;;13.50;99.90;;;;;;5072269;28;20043;-70
2022/05/28 02:49:41;;;;;;;11.00;3.78;;;13.40;99.90;;;;;;5068167;28;20469;-70
2022/05/28 02:52:08;;;;;;;13.68;4.25;;;13.50;99.90;;;;;;5074068;28;20035;-70
2022/05/28 02:54:34;;;;;;;10.70;3.47;;;13.40;99.90;;;;;;5069733;28;20029;-70
2022/05/28 02:57:00;;;;;;;14.15;3.85;;;13.40;99.90;;;;;;5071782;28;20468;-70
2022/05/28 02:59:26;;;;;;;18.10;3.80;;;13.30;99.90;;;;;;5072212;28;20029;-70
2022/05/28 03:01:52;;;;;;;19.55;4.80;;;13.30;99.90;;;;;;5073828;28;20485;-70
2022/05/28 03:04:18;;;;;;;10.35;3.63;;;13.40;99.90;;;;;;5072695;28;20111;-70
2022/05/28 03:06:44;;;;;;;18.33;4.30;;;13.40;99.90;;;;;;5072166;28;20125;-70
2022/05/28 03:09:10;;;;;;;14.45;4.25;;;13.40;99.90;;;;;;5071548;28;20060;-70
2022/05/28 03:11:38;;;;;;;13.35;3.53;;;13.40;99.90;;;;;;5072567;28;20467;-70
2022/05/28 03:14:04;;;;;;;12.15;3.38;;;13.30;99.90;;;;;;5072918;28;20105;-70
2022/05/28 03:16:30;;;;;;;14.20;4.05;;;13.40;99.90;;;;;;5072555;28;20052;-70
2022/05/28 03:18:56;;;;;;;16.92;3.90;;;13.40;99.90;;;;;;5073700;28;20025;-70
2022/05/28 03:21:22;;;;;;;13.52;3.78;;;13.40;99.90;;;;;;5067644;28;20107;-69
2022/05/28 03:23:48;;;;;;;12.20;4.20;;;13.30;99.90;;;;;;5072571;28;20447;-69
2022/05/28 03:26:23;;;;;;;12.88;4.70;;;13.30;99.90;;;;;;5072647;28;20070;-70
2022/05/28 03:28:50;;;;;;;16.30;4.40;;;13.30;99.90;;;;;;5072653;28;20385;-70
2022/05/28 03:31:16;;;;;;;10.35;3.45;;;13.30;99.90;;;;;;5072345;28;20033;-70
2022/05/28 03:33:43;;;;;;;13.90;4.25;;;13.40;99.90;;;;;;5071540;28;20032;-70
2022/05/28 03:36:09;;;;;;;15.38;3.90;;;13.30;99.90;;;;;;5071272;28;20036;-69
2022/05/28 03:38:35;;;;;;;13.52;3.75;;;13.30;99.90;;;;;;5068010;28;20039;-70
2022/05/28 03:41:02;;;;;;;11.63;4.28;;;13.30;99.90;;;;;;5072154;28;20044;-69
2022/05/28 03:43:28;;;;;;;16.00;3.60;;;13.40;99.90;;;;;;5071307;28;20504;-69
2022/05/28 03:45:54;;;;;;;14.93;4.10;;;13.50;99.90;;;;;;5071379;28;20481;-70
2022/05/28 03:48:21;;;;;;;12.90;4.28;;;13.40;99.90;;;;;;5072993;28;20048;-69
2022/05/28 03:50:46;;;;;;;13.82;4.22;;;13.40;99.90;;;;;;5072129;28;20481;-69
2022/05/28 03:53:13;;;;;;;14.63;3.65;;;13.40;99.90;;;;;;5072304;28;20035;-69
2022/05/28 03:55:39;;;;;;;24.38;4.82;;;13.40;99.90;;;;;;5070282;28;20431;-69
2022/05/28 03:58:06;;;;;;;16.00;4.25;;;13.50;99.90;;;;;;5068588;28;20385;-69
2022/05/28 04:00:32;;;;;;;15.77;3.88;;;13.40;99.90;;;;;;5071753;28;20064;-70
2022/05/28 04:02:59;;;;;;;11.18;3.97;;;13.40;99.90;;;;;;5069483;28;20094;-70
2022/05/28 04:05:24;;;;;;;15.80;4.15;;;13.40;99.90;;;;;;5071010;28;20090;-70
2022/05/28 04:07:51;;;;;;;15.10;4.13;;;13.40;99.90;;;;;;5064322;28;20045;-70
2022/05/28 04:10:17;;;;;;;17.48;4.28;;;13.40;99.90;;;;;;5072432;28;20028;-70
2022/05/28 04:12:43;;;;;;;11.40;3.83;;;13.40;99.90;;;;;;5071385;28;20036;-70
2022/05/28 04:15:11;;;;;;;16.17;4.68;;;13.40;99.90;;;;;;5065122;28;20031;-70
2022/05/28 04:17:38;;;;;;;16.73;4.07;;;13.40;99.90;;;;;;5074848;28;20047;-70
2022/05/28 04:20:06;;;;;;;10.50;4.35;;;13.40;99.90;;;;;;5077292;28;20029;-70
2022/05/28 04:22:31;;;;;;;15.35;4.18;;;13.40;99.90;;;;;;5075153;28;20029;-70
2022/05/28 04:24:57;;;;;;;17.13;3.80;;;13.40;99.90;;;;;;5071906;28;20024;-70
2022/05/28 04:27:23;;;;;;;15.40;3.95;;;13.40;99.90;;;;;;5075232;28;20485;-69
2022/05/28 04:29:48;;;;;;;13.70;4.03;;;13.40;99.90;;;;;;5078147;28;20082;-70
2022/05/28 04:32:14;;;;;;;17.30;3.70;;;13.30;99.90;;;;;;5069314;28;20032;-70
2022/05/28 04:34:40;;;;;;;15.70;4.18;;;13.40;99.90;;;;;;5070112;28;20024;-70
2022/05/28 04:37:05;;;;;;;17.50;4.10;;;13.40;99.90;;;;;;5074592;28;20054;-69
2022/05/28 04:39:31;;;;;;;15.60;4.57;;;13.50;99.90;;;;;;5076006;28;20032;-70
2022/05/28 04:41:57;;;;;;;12.65;3.97;;;13.50;99.90;;;;;;5071203;28;20064;-69
2022/05/28 04:44:23;;;;;;;15.10;4.05;;;13.60;99.90;;;;;;5077048;28;20033;-69
2022/05/28 04:46:48;;;;;;;17.08;4.05;;;13.60;99.90;;;;;;5066476;28;20047;-69
2022/05/28 04:49:14;;;;;;;18.48;4.38;;;13.50;99.90;;;;;;5074846;28;20498;-70
2022/05/28 04:51:39;;;;;;;15.85;4.22;;;13.50;99.90;;;;;;5075092;28;20032;-69
2022/05/28 04:54:05;;;;;;;13.27;3.83;;;13.60;99.90;;;;;;5073124;28;20119;-70
2022/05/28 04:56:32;;;;;;;10.73;3.90;;;13.50;99.90;;;;;;5076232;28;20547;-70
2022/05/28 04:58:57;;;;;;;11.00;3.97;;;13.60;99.90;;;;;;5072929;28;20025;-70
2022/05/28 05:01:24;;;;;;;16.48;4.88;;;13.50;99.90;;;;;;5074254;28;20029;-70
2022/05/28 05:03:49;;;;;;;12.20;4.00;;;13.50;99.90;;;;;;5072054;28;20071;-70
2022/05/28 05:06:15;;;;;;;13.80;4.57;;;13.60;99.90;;;;;;5072197;28;20060;-70
2022/05/28 05:08:41;;;;;;;19.25;4.63;;;13.60;99.90;;;;;;5073840;28;20040;-70
2022/05/28 05:11:07;;;;;;;15.20;3.80;;;13.70;99.90;;;;;;5073068;28;20044;-70
2022/05/28 05:13:32;;;;;;;16.70;4.55;;;13.60;99.90;;;;;;5076045;28;20064;-70
2022/05/28 05:15:58;;;;;;;17.45;4.93;;;13.60;99.90;;;;;;5070385;28;20033;-70
2022/05/28 05:18:24;;;;;;;12.23;4.05;;;13.60;99.90;;;;;;5075076;28;20089;-70
2022/05/28 05:20:50;;;;;;;11.70;4.13;;;13.60;99.90;;;;;;5070652;28;20071;-70
2022/05/28 05:23:17;;;;;;;15.32;4.03;;;13.70;99.90;;;;;;5073006;28;20078;-69
2022/05/28 05:25:43;;;;;;;11.68;4.45;;;13.70;99.90;;;;;;5073062;28;20047;-70
2022/05/28 05:28:09;;;;;;;13.02;4.32;;;13.80;99.90;;;;;;5073188;28;20036;-68
2022/05/28 05:30:35;;;;;;;13.70;3.70;;;13.80;99.90;;;;;;5074104;28;20032;-70
2022/05/28 05:33:00;;;;;;;10.50;3.47;;;13.90;99.90;;;;;;5069080;28;20393;-70
2022/05/28 05:35:26;;;;;;;14.77;4.18;;;14.00;99.90;;;;;;5054435;28;20104;-70
2022/05/28 05:37:52;;;;;;;15.02;4.32;;;14.00;99.90;;;;;;5053979;28;20128;-70
2022/05/28 05:40:17;;;;;;;18.42;3.70;;;14.00;99.90;;;;;;5054281;28;20060;-70
2022/05/28 05:42:43;;;;;;;16.77;4.50;;;13.90;99.90;;;;;;5053886;28;20110;-70
2022/05/28 05:45:09;;;;;;;23.98;4.35;;;14.00;99.90;;;;;;5061351;28;20028;-70
2022/05/28 05:47:36;;;;;;;14.20;3.78;;;14.00;99.90;;;;;;5073705;28;20033;-70
2022/05/28 05:50:02;;;;;;;14.55;3.35;;;14.00;99.90;;;;;;5073301;28;20476;-70
2022/05/28 05:52:28;;;;;;;14.90;3.38;;;14.00;99.90;;;;;;5054826;28;20029;-70
2022/05/28 05:54:53;;;;;;;12.23;3.35;;;14.10;99.90;;;;;;5053375;28;20031;-70
2022/05/28 05:57:19;;;;;;;16.60;3.88;;;14.10;99.90;;;;;;5054201;28;20036;-70
2022/05/28 05:59:45;;;;;;;16.00;2.95;;;14.20;99.90;;;;;;5069146;28;20071;-70
2022/05/28 06:02:12;;;;;;;8.13;2.40;;;14.20;99.90;;;;;;5073610;28;20473;-70
2022/05/28 06:04:38;;;;;;;8.98;2.63;;;14.10;99.90;;;;;;5073233;28;20038;-70
2022/05/28 06:07:05;;;;;;;7.93;2.63;;;14.20;99.90;;;;;;5073106;28;20102;-70
2022/05/28 06:09:31;;;;;;;12.98;2.42;;;14.20;99.90;;;;;;5073766;28;20025;-70
2022/05/28 06:11:57;;;;;;;9.32;2.60;;;14.10;99.90;;;;;;5073391;28;20044;-70
2022/05/28 06:14:22;;;;;;;12.65;2.20;;;14.10;99.90;;;;;;5073150;28;20068;-70
2022/05/28 06:16:48;;;;;;;10.77;2.40;;;14.20;99.90;;;;;;5073354;28;20082;-70
2022/05/28 06:19:14;;;;;;;12.45;2.15;;;14.20;99.90;;;;;;5071945;28;20093;-70
2022/05/28 06:21:39;;;;;;;8.00;1.95;;;14.20;99.90;;;;;;5066329;28;20143;-70
2022/05/28 06:24:05;;;;;;;9.77;2.40;;;14.20;99.90;;;;;;5074076;28;20017;-70
2022/05/28 06:26:31;;;;;;;11.63;2.60;;;14.40;99.90;;;;;;5073841;28;20036;-70
2022/05/28 06:28:57;;;;;;;10.23;2.05;;;14.40;99.90;;;;;;5074255;28;20036;-70
2022/05/28 06:31:22;;;;;;;14.35;2.40;;;14.50;99.90;;;;;;5069815;28;20429;-70
2022/05/28 06:33:48;;;;;;;10.15;2.03;;;14.60;99.90;;;;;;5060813;28;20154;-70
2022/05/28 06:36:14;;;;;;;12.40;2.78;;;14.70;99.90;;;;;;5062614;28;20024;-70
2022/05/28 06:38:40;;;;;;;12.90;2.15;;;14.80;99.90;;;;;;5069121;28;20047;-70
2022/05/28 06:41:06;;;;;;;11.57;2.08;;;14.80;99.90;;;;;;5068822;28;20040;-70
2022/05/28 06:43:32;;;;;;;10.98;2.08;;;14.90;99.90;;;;;;5074685;28;20686;-70
2022/05/28 06:46:03;;;;;;;10.15;2.00;;;15.00;99.90;;;;;;5073877;28;20028;-70
2022/05/28 06:48:29;;;;;;;7.43;1.50;;;15.00;99.90;;;;;;5074830;28;20108;-70
2022/05/28 06:51:01;;;;;;;9.25;1.40;;;15.10;99.90;;;;;;5070951;28;20181;-70
2022/05/28 06:53:29;;;;;;;8.50;2.00;;;15.10;99.90;;;;;;5068584;28;20067;-70
2022/05/28 06:55:54;;;;;;;5.65;1.65;;;15.20;99.90;;;;;;5074032;28;20186;-70
2022/05/28 06:58:20;;;;;;;7.47;1.98;;;15.10;99.90;;;;;;5072949;28;20536;-70
2022/05/28 07:00:46;;;;;;;8.23;1.50;;;15.10;99.90;;;;;;5051707;28;20495;-70
2022/05/28 07:03:17;;;;;;;7.32;1.40;;;15.00;99.90;;;;;;5052411;28;20112;-70
2022/05/28 07:05:43;;;;;;;6.28;1.38;;;15.10;99.90;;;;;;5051435;28;20105;-71
2022/05/28 07:08:09;;;;;;;7.93;1.55;;;15.00;99.90;;;;;;5051855;28;20037;-71
2022/05/28 07:10:38;;;;;;;8.00;1.75;;;15.10;99.90;;;;;;5052564;28;20029;-70
2022/05/28 07:13:06;;;;;;;9.18;1.65;;;15.20;99.90;;;;;;5052765;28;20068;-71
2022/05/28 07:15:32;;;;;;;3.67;1.10;;;15.40;99.90;;;;;;5052560;28;20043;-71
2022/05/28 07:17:58;;;;;;;6.80;1.15;;;15.60;99.90;;;;;;5053035;28;20482;-71
2022/05/28 07:20:24;;;;;;;5.15;1.10;;;15.80;99.90;;;;;;5051292;28;20040;-71
2022/05/28 07:22:49;;;;;;;6.57;1.48;;;16.00;99.90;;;;;;5059162;28;20064;-70
2022/05/28 07:25:15;;;;;;;5.22;1.00;;;16.20;99.90;;;;;;5065728;28;20488;-70
2022/05/28 07:27:41;;;;;;;6.38;1.38;;;16.40;99.90;;;;;;5072823;28;20036;-70
2022/05/28 07:30:07;;;;;;;3.95;1.08;;;16.70;99.90;;;;;;5072120;28;20064;-71
2022/05/28 07:32:33;;;;;;;5.63;1.23;;;16.70;99.90;;;;;;5090909;28;20032;-71
2022/05/28 07:34:59;;;;;;;6.80;1.30;;;16.70;99.90;;;;;;5092520;28;20089;-71
2022/05/28 07:37:27;;;;;;;7.65;1.20;;;16.60;99.90;;;;;;5054976;28;20029;-71
2022/05/28 07:39:53;;;;;;;7.90;1.15;;;16.60;99.90;;;;;;5052650;28;20037;-71
2022/05/28 07:42:19;;;;;;;4.10;1.13;;;16.80;99.90;;;;;;5051384;28;20060;-71
2022/05/28 07:44:44;;;;;;;10.27;1.23;;;16.80;99.90;;;;;;5052239;28;20025;-71
2022/05/28 07:47:10;;;;;;;9.10;1.27;;;16.70;99.90;;;;;;5051265;28;20366;-71
2022/05/28 07:49:38;;;;;;;4.70;1.60;;;16.50;99.90;;;;;;5051174;28;20033;-71
2022/05/28 07:52:04;;;;;;;5.32;1.70;;;16.60;99.90;;;;;;5054206;28;20041;-71
2022/05/28 07:54:29;;;;;;;7.75;1.98;;;16.90;99.90;;;;;;5056351;28;20493;-71
2022/05/28 07:56:55;;;;;;;5.65;1.27;;;17.10;99.90;;;;;;5056155;28;20025;-71
2022/05/28 07:59:21;;;;;;;4.90;1.25;;;17.40;99.90;;;;;;5055854;28;20045;-71
2022/05/28 08:01:47;;;;;;;4.35;0.93;;;17.50;99.90;;;;;;5055505;28;20033;-71
2022/05/28 08:04:13;;;;;;;3.45;0.90;;;17.70;99.70;;;;;;5056212;28;20029;-71
2022/05/28 08:06:40;;;;;;;7.53;1.55;;;17.50;98.30;;;;;;5055137;28;20367;-70
2022/05/28 08:09:08;;;;;;;5.78;1.10;;;17.60;99.50;;;;;;5090068;28;20100;-70
2022/05/28 08:11:34;;;;;;;8.82;1.50;;;17.40;99.00;;;;;;5078175;28;20033;-70
2022/05/28 08:14:00;;;;;;;7.05;1.55;;;17.30;99.40;;;;;;5055485;28;20388;-70
2022/05/28 08:16:26;;;;;;;4.25;0.80;;;17.20;99.60;;;;;;5055683;28;20032;-70
2022/05/28 08:18:52;;;;;;;7.20;1.92;;;17.20;99.50;;;;;;5072745;28;20063;-70
2022/05/28 08:24:05;;;;;;;5.32;1.10;;;17.20;99.50;;;;;;5059435;28;20121;-70
2022/05/28 08:26:31;;;;;;;3.40;0.90;;;17.50;98.20;;;;;;5075249;28;20494;-70
2022/05/28 08:28:57;;;;;;;3.97;1.02;;;17.80;98.60;;;;;;5075430;28;20037;-70
2022/05/28 08:31:27;;;;;;;4.55;0.75;;;18.20;97.30;;;;;;5075160;28;20037;-70
2022/05/28 08:33:53;;;;;;;3.10;0.90;;;18.20;96.70;;;;;;5075776;28;20512;-69
2022/05/28 08:36:20;;;;;;;5.18;0.98;;;18.00;96.40;;;;;;5091096;28;20036;-70
2022/05/28 08:38:46;;;;;;;6.28;1.10;;;17.80;96.30;;;;;;5084193;28;20504;-70
2022/05/28 08:41:14;;;;;;;3.83;0.88;;;18.10;96.80;;;;;;5094455;28;20066;-70
2022/05/28 08:44:02;;;;;;;5.45;1.23;;;18.40;96.10;;;;;;5094368;28;20032;-70
2022/05/28 08:46:34;;;;;;;3.28;1.08;;;18.20;95.50;;;;;;5054269;28;20063;-70
2022/05/28 08:49:00;;;;;;;4.28;1.17;;;18.40;96.20;;;;;;5084452;28;20037;-70
2022/05/28 08:51:38;;;;;;;2.40;1.13;;;18.30;96.10;;;;;;5072505;28;20068;-71
2022/05/28 08:54:21;;;;;;;2.70;1.02;;;18.50;95.90;;;;;;5054367;28;20111;-71
2022/05/28 08:56:51;;;;;;;5.20;1.00;;;18.80;96.60;;;;;;5052794;28;20025;-72
2022/05/28 08:59:23;;;;;;;3.97;1.17;;;19.10;96.00;;;;;;5054036;28;20473;-72
2022/05/28 09:01:50;;;;;;;;;;;19.20;96.90;;;;;;5055084;28;20033;-69
2022/05/28 09:04:27;;;;;;;9.15;1.10;;;19.20;95.70;;;;;;5054302;28;19924;-71
2022/05/28 09:06:55;;;;;;;4.47;0.88;;;19.30;95.90;;;;;;5053911;28;20454;-71
2022/05/28 09:09:36;;;;;;;4.00;0.82;;;19.50;94.70;;;;;;5053450;28;20773;-71
2022/05/28 09:12:05;;;;;;;3.80;0.80;;;19.50;94.80;;;;;;5053654;28;20041;-71
2022/05/28 09:14:37;;;;;;;5.45;0.95;;;19.60;94.60;;;;;;5062830;28;20055;-71
2022/05/28 09:17:25;;;;;;;3.88;0.90;;;19.80;94.00;;;;;;5073258;28;20032;-71
2022/05/28 09:19:53;;;;;;;7.20;1.30;;;20.00;92.70;;;;;;5073727;28;20452;-71
2022/05/28 09:22:21;;;;;;;3.53;0.82;;;20.00;91.90;;;;;;5074139;28;20481;-71
2022/05/28 09:24:47;;;;;;;2.38;0.80;;;20.10;92.00;;;;;;5068731;28;20055;-71
2022/05/28 09:27:53;;;;;;;5.30;1.42;;;20.10;92.90;;;;;;5073807;28;20068;-71
2022/05/28 09:30:43;;;;;;;6.70;1.45;;;20.10;93.60;;;;;;5074530;28;20079;-71
2022/05/28 09:33:48;;;;;;;8.13;1.10;;;19.90;92.70;;;;;;5074219;28;20029;-71
2022/05/28 09:36:19;;;;;;;7.75;1.20;;;19.50;92.90;;;;;;5073519;28;20492;-71
2022/05/28 09:38:51;;;;;;;3.75;1.05;;;19.70;93.00;;;;;;5068758;28;20025;-70
2022/05/28 09:41:35;;;;;;;3.75;0.68;;;20.10;93.00;;;;;;5059017;28;20105;-68
2022/05/28 09:44:24;;;;;;;2.50;0.73;;;20.20;92.50;;;;;;5064146;28;20374;-70
2022/05/28 09:46:50;;;;;;;4.40;1.05;;;20.10;91.70;;;;;;5051811;28;20032;-69
2022/05/28 09:49:24;;;;;;;5.82;1.15;;;20.20;93.00;;;;;;5053411;28;20450;-69
2022/05/28 09:51:57;;;;;;;5.70;1.08;;;20.00;93.00;;;;;;5053777;28;20044;-69
2022/05/28 09:54:27;;;;;;;5.68;1.23;;;19.70;93.00;;;;;;5053308;28;20041;-70
2022/05/28 09:57:21;;;;;;;2.55;0.80;;;19.50;92.90;;;;;;5053682;28;20041;-69
2022/05/28 09:59:55;;;;;;;4.47;1.10;;;19.40;92.70;;;;;;5055495;28;20071;-69
2022/05/28 10:02:27;;;;;;;6.88;1.02;;;19.10;92.70;;;;;;5057240;28;20116;-69
2022/05/28 10:05:09;;;;;;;5.57;0.70;;;19.60;93.70;;;;;;5053081;28;20040;-69
2022/05/28 10:07:36;;;;;;;3.17;1.15;;;19.80;93.80;;;;;;5052583;28;20060;-70
2022/05/28 10:10:14;;;;;;;5.10;1.10;;;19.80;92.40;;;;;;5069005;28;20032;-69
2022/05/28 10:12:40;;;;;;;5.72;1.27;;;19.50;93.00;;;;;;5072405;28;20116;-69
2022/05/28 10:15:12;;;;;;;5.20;0.95;;;19.30;93.40;;;;;;5069961;28;20544;-69
2022/05/28 10:17:41;;;;;;;8.38;1.30;;;19.00;93.50;;;;;;5088227;28;20552;-69
2022/05/28 10:20:19;;;;;;;5.88;1.42;;;18.80;94.50;;;;;;5060812;28;20127;-69
2022/05/28 10:22:48;;;;;;;4.10;1.35;;;18.70;94.40;;;;;;5071780;28;20362;-69
2022/05/28 10:25:37;;;;;;;6.07;1.23;;;18.70;94.70;;;;;;5072493;28;20041;-69
2022/05/28 10:28:03;;;;;;;6.13;1.40;;;19.20;94.60;;;;;;5071870;28;20040;-70
2022/05/28 10:30:34;;;;;;;5.43;1.15;;;19.70;93.10;;;;;;5072907;28;20025;-69
2022/05/28 10:33:11;;;;;;;3.53;1.00;;;20.00;91.30;;;;;;5071885;28;20032;-69
2022/05/28 10:35:38;;;;;;;5.07;1.15;;;20.30;90.70;;;;;;5088250;28;20039;-69
2022/05/28 10:38:08;;;;;;;4.22;0.77;;;20.70;90.60;;;;;;5052479;28;20428;-69
2022/05/28 10:40:48;;;;;;;4.95;0.80;;;21.00;91.00;;;;;;5052704;28;20033;-70
2022/05/28 10:43:33;;;;;;;2.92;1.45;;;21.10;90.40;;;;;;5053181;28;20055;-69
2022/05/28 10:46:12;;;;;;;6.47;1.35;;;20.90;89.10;;;;;;5071429;28;20363;-70
2022/05/28 10:48:51;;;;;;;5.40;1.08;;;20.30;90.40;;;;;;5071737;28;20044;-69
2022/05/28 10:51:27;;;;;;;4.50;1.17;;;20.60;91.10;;;;;;5070025;28;20033;-70
2022/05/28 10:54:18;;;;;;;4.22;0.82;;;20.60;90.70;;;;;;5053198;28;20207;-69
2022/05/28 10:56:55;;;;;;;5.18;0.98;;;20.30;91.50;;;;;;5051675;28;20485;-69
2022/05/28 10:59:47;;;;;;;4.13;1.30;;;20.10;92.10;;;;;;5051597;28;20090;-69
2022/05/28 11:02:22;;;;;;;4.88;1.02;;;20.70;92.10;;;;;;5053108;28;20016;-69
2022/05/28 11:05:13;;;;;;;9.98;1.48;;;21.00;90.60;;;;;;5051240;28;20044;-69
2022/05/28 11:07:48;;;;;;;3.92;0.85;;;21.10;88.50;;;;;;5051787;28;20056;-69
2022/05/28 11:10:39;;;;;;;3.88;1.02;;;20.80;90.40;;;;;;5088215;28;20055;-70
2022/05/28 11:13:13;;;;;;;7.38;1.50;;;20.60;90.40;;;;;;5052562;28;20033;-69
2022/05/28 11:15:39;;;;;;;6.43;1.35;;;20.80;90.40;;;;;;5064510;28;20108;-69
2022/05/28 11:18:17;;;;;;;6.00;1.42;;;21.10;88.70;;;;;;5069413;28;20119;-69
2022/05/28 11:21:01;;;;;;;7.32;1.52;;;21.50;90.30;;;;;;5063977;28;20107;-69
2022/05/28 11:23:33;;;;;;;6.15;1.30;;;21.40;89.00;;;;;;5072797;28;20036;-70
2022/05/28 11:26:02;;;;;;;6.03;1.48;;;20.90;90.50;;;;;;5066897;28;20041;-70
2022/05/28 11:28:39;;;;;;;5.57;1.35;;;20.50;90.70;;;;;;5067490;28;20093;-69
2022/05/28 11:31:29;;;;;;;6.20;1.10;;;20.50;91.10;;;;;;5075751;28;20110;-70
2022/05/28 11:33:59;;;;;;;4.30;1.33;;;21.00;91.20;;;;;;5075503;28;20040;-69
2022/05/28 11:36:36;;;;;;;4.20;1.20;;;21.20;90.20;;;;;;5075601;28;20020;-69
2022/05/28 11:39:12;;;;;;;3.40;1.10;;;21.60;88.60;;;;;;5075850;28;20028;-69
2022/05/28 11:42:19;;;;;;;3.97;1.08;;;21.90;89.90;;;;;;5069905;28;20123;-70
2022/05/28 11:44:52;;;;;;;2.55;0.80;;;22.10;85.70;;;;;;5070635;28;20045;-71
2022/05/28 11:47:26;;;;;;;6.00;1.20;;;22.10;85.00;;;;;;5076238;28;20044;-71
2022/05/28 11:52:46;;;;;;;5.05;0.80;;;22.30;83.90;;;;;;5068024;28;20086;-71
2022/05/28 11:55:23;;;;;;;4.80;1.10;;;21.80;84.30;;;;;;5075542;28;20028;-70
2022/05/28 11:58:08;;;;;;;5.15;0.90;;;21.40;84.10;;;;;;5075431;28;20119;-70
2022/05/28 12:00:38;;;;;;;3.25;1.15;;;21.10;87.70;;;;;;5055603;28;20047;-72
2022/05/28 12:03:16;;;;;;;7.00;1.17;;;21.40;87.90;;;;;;5055525;28;20029;-70
2022/05/28 12:05:47;;;;;;;3.72;1.00;;;21.70;87.90;;;;;;5053646;28;20029;-71
2022/05/28 12:08:27;;;;;;;4.45;1.10;;;21.30;87.00;;;;;;5055842;28;20041;-71
2022/05/28 12:11:00;;;;;;;4.30;0.80;;;21.00;83.70;;;;;;5054982;28;20041;-71
2022/05/28 12:13:30;;;;;;;5.43;1.38;;;20.70;81.70;;;;;;5081145;28;20492;-71
2022/05/28 12:16:21;;;;;;;7.15;1.23;;;21.00;84.30;;;;;;5073983;28;20459;-71
2022/05/28 12:19:02;;;;;;;2.75;0.85;;;21.40;83.40;;;;;;5071129;28;20084;-71
2022/05/28 12:21:36;;;;;;;3.60;1.05;;;21.60;84.10;;;;;;5071658;28;20037;-71
2022/05/28 12:24:07;;;;;;;4.18;1.10;;;21.80;81.10;;;;;;5058560;28;20028;-71
2022/05/28 12:26:57;;;;;;;5.00;1.20;;;21.60;82.80;;;;;;5075393;28;20036;-71
2022/05/28 12:29:34;;;;;;;4.90;1.00;;;21.60;78.80;;;;;;5074794;28;20059;-70
2022/05/28 12:32:18;;;;;;;3.78;1.20;;;21.90;81.20;;;;;;5066623;28;20104;-71
2022/05/28 12:34:53;;;;;;;3.60;1.15;;;22.20;81.50;;;;;;5067252;28;20151;-71
2022/05/28 12:37:27;;;;;;;5.78;1.35;;;22.40;81.80;;;;;;5074162;28;20036;-71
2022/05/28 12:40:31;;;;;;;5.57;1.30;;;22.30;83.30;;;;;;5058026;28;20033;-71
2022/05/28 12:43:22;;;;;;;4.32;0.93;;;21.80;82.40;;;;;;5054856;28;20452;-71
2022/05/28 12:45:50;;;;;;;3.72;1.35;;;21.60;82.70;;;;;;5057152;28;20048;-70
2022/05/28 12:48:30;;;;;;;8.52;1.33;;;21.90;84.30;;;;;;5054239;28;20473;-71
2022/05/28 12:51:20;;;;;;;3.88;1.17;;;22.00;80.50;;;;;;5054116;28;20120;-71
2022/05/28 12:53:54;;;;;;;2.70;0.85;;;22.20;80.80;;;;;;5070598;28;20087;-69
2022/05/28 12:56:35;;;;;;;4.35;0.90;;;22.40;79.10;;;;;;5060337;28;20029;-70
2022/05/28 12:59:22;;;;;;;3.25;1.05;;;22.60;81.70;;;;;;5061537;28;20162;-71
2022/05/28 13:02:02;;;;;;;2.70;0.93;;;22.70;81.30;;;;;;5074241;28;20028;-71
2022/05/28 13:04:39;;;;;;;3.42;0.90;;;22.80;78.80;;;;;;5074354;28;20629;-70
2022/05/28 13:07:13;;;;;;;10.32;1.38;;;22.80;78.90;;;;;;5064334;28;20032;-70